createdAt,value
2023-05-15T00:01:19.673Z,95315.80
2023-05-15T00:03:50.820Z,95297.47
2023-05-15T00:06:20.361Z,95290.65
2023-05-15T00:08:51.714Z,95284.85
2023-05-15T00:11:21.601Z,95289.55
2023-05-15T00:13:51.405Z,95280.03
2023-05-15T00:16:23.282Z,95292.41
2023-05-15T00:18:52.104Z,95317.05
2023-05-15T00:21:25.938Z,95322.60
2023-05-15T00:23:54.644Z,95326.78
2023-05-15T00:26:25.883Z,95328.09
2023-05-15T00:28:54.881Z,95336.84
2023-05-15T00:31:25.400Z,95328.98
2023-05-15T00:33:56.213Z,95323.16
2023-05-15T00:36:25.969Z,95331.98
2023-05-15T00:38:54.867Z,95330.56
2023-05-15T00:41:26.958Z,95335.91
2023-05-15T00:44:00.385Z,95319.52
2023-05-15T00:46:31.251Z,95315.58
2023-05-15T00:49:00.830Z,95309.11
2023-05-15T00:51:29.567Z,95320.00
2023-05-15T00:54:02.745Z,95322.47
2023-05-15T00:56:33.039Z,95321.64
2023-05-15T00:59:06.475Z,95319.27
2023-05-15T01:01:35.731Z,95318.38
2023-05-15T01:04:05.096Z,95316.01
2023-05-15T01:06:33.797Z,95320.04
2023-05-15T01:09:04.444Z,95329.23
2023-05-15T01:11:35.623Z,95319.08
2023-05-15T01:14:06.874Z,95314.15
2023-05-15T01:16:36.507Z,95325.99
2023-05-15T01:19:06.665Z,95323.46
2023-05-15T01:21:38.359Z,95322.87
2023-05-15T01:24:22.176Z,95301.92
2023-05-15T01:27:08.300Z,95304.79
2023-05-15T01:29:52.022Z,95302.39
2023-05-15T01:32:32.608Z,95299.30
2023-05-15T01:35:16.498Z,95287.78
2023-05-15T01:37:50.067Z,95278.19
2023-05-15T01:40:21.784Z,95293.11
2023-05-15T01:43:02.368Z,95289.67
2023-05-15T01:45:32.781Z,95269.70
2023-05-15T01:48:03.247Z,95283.08
2023-05-15T01:50:34.060Z,95279.19
2023-05-15T01:53:04.467Z,95279.79
2023-05-15T01:55:35.653Z,95282.92
2023-05-15T01:58:05.623Z,95282.28
2023-05-15T02:00:35.600Z,95268.17
2023-05-15T02:03:06.951Z,95275.50
2023-05-15T02:05:36.802Z,95281.22
2023-05-15T02:08:06.569Z,95283.64
2023-05-15T02:10:36.777Z,95288.33
2023-05-15T02:13:06.720Z,95296.38
2023-05-15T02:15:36.789Z,95295.91
2023-05-15T02:18:05.865Z,95298.05
2023-05-15T02:20:34.604Z,95283.97
2023-05-15T02:23:03.340Z,95279.75
2023-05-15T02:25:54.561Z,95280.05
2023-05-15T02:28:31.719Z,95284.31
2023-05-15T02:31:03.501Z,95279.95
2023-05-15T02:33:35.234Z,95266.31
2023-05-15T02:36:10.124Z,95257.78
2023-05-15T02:38:54.152Z,95256.45
2023-05-15T02:41:24.149Z,95240.23
2023-05-15T02:43:55.678Z,95247.41
2023-05-15T02:46:25.876Z,95263.54
2023-05-15T02:48:55.954Z,95268.94
2023-05-15T02:51:25.005Z,95272.76
2023-05-15T02:53:53.844Z,95265.33
2023-05-15T02:56:22.713Z,95269.09
2023-05-15T02:58:51.475Z,95266.47
2023-05-15T03:01:20.268Z,95250.03
2023-05-15T03:03:49.030Z,95248.80
2023-05-15T03:06:20.982Z,95258.18
2023-05-15T03:08:49.716Z,95256.48
2023-05-15T03:11:19.355Z,95259.44
2023-05-15T03:13:49.236Z,95268.05
2023-05-15T03:16:17.973Z,95276.45
2023-05-15T03:18:46.767Z,95285.56
2023-05-15T03:21:15.495Z,95269.89
2023-05-15T03:23:44.471Z,95264.73
2023-05-15T03:26:13.197Z,95276.92
2023-05-15T03:28:42.469Z,95266.23
2023-05-15T03:31:11.335Z,95266.97
2023-05-15T03:33:40.109Z,95262.86
2023-05-15T03:36:08.958Z,95263.94
2023-05-15T03:38:38.106Z,95257.09
2023-05-15T03:41:06.805Z,95260.30
2023-05-15T03:43:35.551Z,95247.76
2023-05-15T03:46:04.258Z,95250.63
2023-05-15T03:48:34.901Z,95245.83
2023-05-15T03:51:03.636Z,95253.52
2023-05-15T03:53:32.393Z,95255.13
2023-05-15T03:56:02.472Z,95257.05
2023-05-15T03:58:36.683Z,95264.99
2023-05-15T04:01:05.437Z,95259.28
2023-05-15T04:03:34.568Z,95259.34
2023-05-15T04:06:03.313Z,95262.47
2023-05-15T04:08:31.986Z,95266.45
2023-05-15T04:11:02.177Z,95261.80
2023-05-15T04:13:31.007Z,95255.81
2023-05-15T04:16:00.048Z,95257.50
2023-05-15T04:18:29.854Z,95260.92
2023-05-15T04:20:58.630Z,95277.63
2023-05-15T04:23:28.155Z,95276.29
2023-05-15T04:25:57.025Z,95281.14
2023-05-15T04:28:28.674Z,95277.69
2023-05-15T04:30:58.762Z,95278.17
2023-05-15T04:33:27.407Z,95277.40
2023-05-15T04:35:56.368Z,95272.66
2023-05-15T04:38:28.378Z,95271.90
2023-05-15T04:41:21.760Z,95265.21
2023-05-15T04:43:54.218Z,95263.41
2023-05-15T04:46:23.004Z,95249.86
2023-05-15T04:48:53.356Z,95244.00
2023-05-15T04:51:26.367Z,95236.56
2023-05-15T04:54:33.529Z,95249.96
2023-05-15T04:56:36.381Z,95256.44
2023-05-15T04:59:05.290Z,95261.02
2023-05-15T05:01:34.056Z,95261.36
2023-05-15T05:04:02.885Z,95262.97
2023-05-15T05:06:33.130Z,95258.59
2023-05-15T05:09:01.903Z,95258.59
2023-05-15T05:11:33.605Z,95253.50
2023-05-15T05:14:02.498Z,95246.95
2023-05-15T05:16:32.909Z,95238.33
2023-05-15T05:19:01.859Z,95227.08
2023-05-15T05:21:33.095Z,95235.03
2023-05-15T05:24:02.008Z,95243.81
2023-05-15T05:26:33.675Z,95241.42
2023-05-15T05:29:02.367Z,95236.91
2023-05-15T05:31:33.005Z,95242.96
2023-05-15T05:34:03.371Z,95243.56
2023-05-15T05:36:32.279Z,95241.62
2023-05-15T05:39:04.827Z,95242.14
2023-05-15T05:41:33.629Z,95237.62
2023-05-15T05:44:03.931Z,95240.94
2023-05-15T05:46:34.565Z,95242.09
2023-05-15T05:49:03.825Z,95245.94
2023-05-15T05:51:33.643Z,95241.34
2023-05-15T05:54:05.669Z,95239.42
2023-05-15T05:56:36.172Z,95242.30
2023-05-15T05:59:07.645Z,95242.47
2023-05-15T06:01:36.736Z,95239.55
2023-05-15T06:04:05.794Z,95244.33
2023-05-15T06:06:43.111Z,95244.95
2023-05-15T06:09:12.074Z,95241.33
2023-05-15T06:11:48.468Z,95247.61
2023-05-15T06:14:19.528Z,95248.20
2023-05-15T06:16:50.978Z,95249.75
2023-05-15T06:19:19.786Z,95234.38
2023-05-15T06:21:50.236Z,95236.94
2023-05-15T06:24:21.904Z,95228.56
2023-05-15T06:26:52.369Z,95230.88
2023-05-15T06:29:21.520Z,95230.75
2023-05-15T06:31:53.940Z,95242.87
2023-05-15T06:34:22.742Z,95238.48
2023-05-15T06:36:52.614Z,95247.61
2023-05-15T06:39:22.641Z,95246.53
2023-05-15T06:42:15.417Z,95254.97
2023-05-15T06:44:48.063Z,95255.45
2023-05-15T06:47:20.257Z,95263.55
2023-05-15T06:49:49.070Z,95266.19
2023-05-15T06:52:17.931Z,95256.69
2023-05-15T06:54:48.356Z,95266.38
2023-05-15T06:57:19.795Z,95266.19
2023-05-15T06:59:50.066Z,95265.08
2023-05-15T07:02:20.339Z,95263.70
2023-05-15T07:05:10.823Z,95264.66
2023-05-15T07:07:41.751Z,95269.40
2023-05-15T07:10:10.947Z,95261.77
2023-05-15T07:12:41.261Z,95260.49
2023-05-15T07:15:10.520Z,95261.09
2023-05-15T07:17:39.269Z,95252.81
2023-05-15T07:20:09.843Z,95255.53
2023-05-15T07:22:55.104Z,95247.75
2023-05-15T07:25:11.823Z,95253.78
2023-05-15T07:27:40.646Z,95256.80
2023-05-15T07:30:11.555Z,95260.25
2023-05-15T07:32:40.211Z,95262.75
2023-05-15T07:35:10.822Z,95266.66
2023-05-15T07:37:44.165Z,95267.30
2023-05-15T07:40:13.132Z,95259.95
2023-05-15T07:42:41.955Z,95257.79
2023-05-15T07:45:11.318Z,95253.12
2023-05-15T07:47:44.117Z,95262.98
2023-05-15T07:50:18.747Z,95257.70
2023-05-15T07:52:49.217Z,95252.41
2023-05-15T07:55:18.051Z,95247.23
2023-05-15T08:00:22.157Z,95262.78
2023-05-15T08:02:51.244Z,95276.25
2023-05-15T08:05:21.556Z,95273.64
2023-05-15T08:07:51.929Z,95277.20
2023-05-15T08:10:22.279Z,95276.09
2023-05-15T08:12:52.749Z,95279.20
2023-05-15T08:15:21.414Z,95274.17
2023-05-15T08:17:50.343Z,95274.66
2023-05-15T08:20:22.186Z,95271.02
2023-05-15T08:22:50.845Z,95277.81
2023-05-15T08:25:19.575Z,95277.23
2023-05-15T08:27:48.304Z,95278.62
2023-05-15T08:30:18.617Z,95272.38
2023-05-15T08:32:48.924Z,95279.89
2023-05-15T08:35:17.809Z,95276.91
2023-05-15T08:37:48.523Z,95279.25
2023-05-15T08:42:48.939Z,95271.30
2023-05-15T08:45:19.296Z,95271.77
2023-05-15T08:47:48.124Z,95261.70
2023-05-15T08:50:18.486Z,95263.45
2023-05-15T08:52:48.730Z,95254.38
2023-05-15T08:55:18.306Z,95258.48
2023-05-15T08:57:48.766Z,95269.27
2023-05-15T09:00:20.196Z,95253.08
2023-05-15T09:02:49.166Z,95246.73
2023-05-15T09:05:19.982Z,95248.20
2023-05-15T09:07:50.370Z,95243.58
2023-05-15T09:10:20.705Z,95236.20
2023-05-15T09:12:52.341Z,95236.18
2023-05-15T09:15:25.583Z,95245.11
2023-05-15T09:17:57.472Z,95252.39
2023-05-15T09:20:28.611Z,95249.34
2023-05-15T09:23:05.527Z,95240.44
2023-05-15T09:25:49.152Z,95236.55
2023-05-15T09:28:29.488Z,95229.48
2023-05-15T09:31:03.759Z,95221.20
2023-05-15T09:33:42.262Z,95232.59
2023-05-15T09:36:18.515Z,95229.91
2023-05-15T09:38:49.669Z,95226.33
2023-05-15T09:41:22.930Z,95228.96
2023-05-15T09:43:58.566Z,95209.55
2023-05-15T09:46:34.338Z,95206.21
2023-05-15T09:49:06.304Z,95203.45
2023-05-15T09:51:40.053Z,95183.03
2023-05-15T09:54:13.651Z,95185.42
2023-05-15T09:56:47.439Z,95183.18
2023-05-15T10:01:32.881Z,95186.47
2023-05-15T10:02:40.596Z,95185.00
2023-05-15T10:05:09.797Z,95194.52
2023-05-15T10:07:38.650Z,95180.23
2023-05-15T10:10:08.171Z,95180.05
2023-05-15T10:12:37.064Z,95176.24
2023-05-15T10:15:06.278Z,95183.51
2023-05-15T10:17:37.123Z,95172.05
2023-05-15T10:20:08.212Z,95172.89
2023-05-15T10:22:39.746Z,95176.56
2023-05-15T10:25:31.348Z,95195.44
2023-05-15T10:28:01.393Z,95197.94
2023-05-15T10:30:33.502Z,95196.88
2023-05-15T10:33:03.403Z,95201.77
2023-05-15T10:35:33.351Z,95132.50
2023-05-15T10:38:09.146Z,95205.63
2023-05-15T10:46:43.631Z,95225.73
2023-05-15T10:55:10.847Z,95217.72
2023-05-15T11:00:48.860Z,95216.30
2023-05-15T11:04:04.733Z,95223.94
2023-05-15T11:06:56.924Z,95209.69
2023-05-15T11:22:52.487Z,95190.97
2023-05-15T11:32:43.462Z,95204.94
2023-05-15T11:39:27.492Z,95210.67
2023-05-15T11:48:02.837Z,95094.75
2023-05-15T11:51:18.722Z,95167.73
2023-05-15T11:54:49.401Z,95158.59
2023-05-15T12:00:32.080Z,95169.64
2023-05-15T12:03:50.623Z,95164.95
2023-05-15T12:06:04.150Z,95157.11
2023-05-15T12:08:45.420Z,95161.23
2023-05-15T12:17:38.141Z,95162.55
2023-05-15T12:20:43.656Z,95152.28
2023-05-15T12:23:19.790Z,95151.84
2023-05-15T12:26:05.676Z,95154.85
2023-05-15T12:28:45.459Z,95130.25
2023-05-15T12:34:43.736Z,95118.39
2023-05-15T12:40:13.612Z,95106.20
2023-05-15T12:43:01.984Z,95091.86
2023-05-15T12:45:34.184Z,95085.55
2023-05-15T12:48:04.856Z,95080.85
2023-05-15T12:50:38.782Z,95077.11
2023-05-15T12:53:12.301Z,95069.15
2023-05-15T12:55:41.936Z,95068.65
2023-05-15T12:58:17.051Z,95077.77
2023-05-15T13:00:54.455Z,95074.76
2023-05-15T13:03:25.504Z,95085.29
2023-05-15T13:05:58.941Z,95095.69
2023-05-15T13:08:36.697Z,95093.05
2023-05-15T13:12:35.283Z,95095.31
2023-05-15T13:17:04.859Z,95049.13
2023-05-15T13:19:38.034Z,95078.91
2023-05-15T13:22:10.653Z,95077.36
2023-05-15T13:24:52.980Z,95074.50
2023-05-15T13:27:21.916Z,95072.95
2023-05-15T13:29:53.552Z,95062.18
2023-05-15T13:32:22.375Z,95063.80
2023-05-15T13:34:56.694Z,95062.06
2023-05-15T13:37:26.168Z,95075.92
2023-05-15T13:40:06.888Z,95082.23
2023-05-15T13:42:55.554Z,95082.52
2023-05-15T13:45:27.317Z,95080.69
2023-05-15T13:48:40.303Z,95087.18
2023-05-15T13:51:14.590Z,95095.14
2023-05-15T13:53:50.716Z,95096.33
2023-05-15T13:56:44.758Z,95091.02
2023-05-15T13:59:16.855Z,95091.72
2023-05-15T14:02:09.694Z,95088.09
2023-05-15T14:11:28.732Z,95090.67
2023-05-15T14:20:13.708Z,95095.52
2023-05-15T14:23:21.570Z,95099.97
2023-05-15T14:29:03.031Z,95084.55
2023-05-15T14:31:43.052Z,95083.52
2023-05-15T14:43:14.667Z,95067.80
2023-05-15T14:45:54.476Z,95062.36
2023-05-15T14:55:18.321Z,95044.66
2023-05-15T14:58:03.083Z,95041.38
2023-05-15T15:00:28.816Z,95045.84
2023-05-15T15:06:48.213Z,95049.16
2023-05-15T15:09:19.506Z,95035.03
2023-05-15T15:12:22.842Z,95040.95
2023-05-15T15:15:05.046Z,95030.52
2023-05-15T15:17:36.428Z,95018.67
2023-05-15T15:20:06.379Z,95017.70
2023-05-15T15:23:06.898Z,95021.89
2023-05-15T15:25:40.098Z,95018.22
2023-05-15T15:28:12.914Z,95023.66
2023-05-15T15:30:51.562Z,95021.81
2023-05-15T15:36:38.685Z,95027.00
2023-05-15T15:42:40.838Z,95017.80
2023-05-15T15:48:55.772Z,95021.12
2023-05-15T15:54:46.055Z,95020.59
2023-05-15T15:57:39.131Z,95021.98
2023-05-15T16:00:11.875Z,95017.03
2023-05-15T16:03:06.027Z,95027.42
2023-05-15T16:05:45.807Z,95035.06
2023-05-15T16:08:21.175Z,95046.03
2023-05-15T16:17:33.562Z,95038.70
2023-05-15T16:26:52.972Z,95040.02
2023-05-15T16:29:36.495Z,95043.51
2023-05-15T16:32:32.150Z,95041.50
2023-05-15T16:39:21.445Z,95061.08
2023-05-15T16:41:19.010Z,95060.03
2023-05-15T16:44:01.902Z,95065.32
2023-05-15T16:46:35.971Z,95065.41
2023-05-15T16:49:06.087Z,95064.55
2023-05-15T16:51:40.110Z,95070.81
2023-05-15T16:54:14.204Z,95072.73
2023-05-15T16:56:45.093Z,95062.66
2023-05-15T17:02:22.895Z,95057.38
2023-05-15T17:05:12.081Z,95059.00
2023-05-15T17:07:30.267Z,95066.66
2023-05-15T17:10:06.192Z,95052.76
2023-05-15T17:13:09.415Z,95052.86
2023-05-15T17:15:44.245Z,95063.53
2023-05-15T17:18:14.787Z,95063.55
2023-05-15T17:20:45.423Z,95059.31
2023-05-15T17:23:21.712Z,95056.21
2023-05-15T17:26:07.712Z,95055.25
2023-05-15T17:28:46.907Z,95059.92
2023-05-15T17:34:08.262Z,95070.45
2023-05-15T17:36:37.341Z,95073.62
2023-05-15T17:39:07.853Z,95076.91
2023-05-15T17:41:38.488Z,95079.02
2023-05-15T17:44:11.238Z,95070.86
2023-05-15T17:46:41.764Z,95066.32
2023-05-15T17:49:12.706Z,95084.59
2023-05-15T17:51:43.112Z,95096.94
2023-05-15T17:54:18.835Z,95085.77
2023-05-15T17:56:54.228Z,95110.68
2023-05-15T17:59:42.160Z,95119.38
2023-05-15T18:02:19.589Z,95105.80
2023-05-15T18:04:50.313Z,95096.22
2023-05-15T18:07:21.005Z,95101.77
2023-05-15T18:10:02.872Z,95089.09
2023-05-15T18:12:27.572Z,95094.28
2023-05-15T18:14:58.190Z,95100.42
2023-05-15T18:17:38.456Z,95073.40
2023-05-15T18:23:14.803Z,95069.67
2023-05-15T18:25:44.320Z,95081.88
2023-05-15T18:28:21.024Z,95092.50
2023-05-15T18:30:57.180Z,95079.88
2023-05-15T18:33:35.421Z,95088.47
2023-05-15T18:36:28.306Z,95089.81
2023-05-15T18:38:59.230Z,95085.45
2023-05-15T18:41:28.321Z,95087.55
2023-05-15T18:44:09.010Z,95099.45
2023-05-15T18:46:38.020Z,95106.16
2023-05-15T18:49:08.549Z,95107.50
2023-05-15T18:51:38.888Z,95105.28
2023-05-15T18:54:09.201Z,95092.08
2023-05-15T18:56:41.795Z,95006.83
2023-05-15T19:00:33.941Z,95092.34
2023-05-15T19:01:57.156Z,95101.55
2023-05-15T19:04:36.266Z,95101.38
2023-05-15T19:07:18.820Z,95106.11
2023-05-15T19:09:51.418Z,95115.28
2023-05-15T19:12:40.987Z,95116.27
2023-05-15T19:15:05.368Z,95116.66
2023-05-15T19:23:50.747Z,95122.27
2023-05-15T19:26:24.613Z,95121.73
2023-05-15T19:29:21.797Z,95125.44
2023-05-15T19:35:35.227Z,95132.77
2023-05-15T19:44:02.668Z,95134.54
2023-05-15T19:46:36.231Z,95140.08
2023-05-15T19:52:22.546Z,95139.47
2023-05-15T19:54:51.710Z,95142.33
2023-05-15T19:57:20.584Z,95141.57
2023-05-15T19:59:50.658Z,95148.45
2023-05-15T20:02:27.059Z,95144.58
2023-05-15T20:05:14.326Z,95139.06
2023-05-15T20:07:59.250Z,95143.09
2023-05-15T20:13:48.252Z,95137.87
2023-05-15T20:16:20.330Z,95131.97
2023-05-15T20:19:15.211Z,95122.98
2023-05-15T20:21:52.662Z,95128.48
2023-05-15T20:24:33.637Z,95132.17
2023-05-15T20:29:54.312Z,95122.00
2023-05-15T20:32:43.530Z,95105.54
2023-05-15T20:35:00.843Z,95105.19
2023-05-15T20:37:35.610Z,95102.69
2023-05-15T20:40:07.658Z,95099.20
2023-05-15T20:42:40.344Z,95101.92
2023-05-15T20:45:11.318Z,95086.05
2023-05-15T20:48:00.053Z,95086.41
2023-05-15T20:50:30.597Z,95083.33
2023-05-15T20:53:02.681Z,95074.56
2023-05-15T20:55:31.557Z,95075.11
2023-05-15T20:58:06.611Z,95069.20
2023-05-15T21:00:35.574Z,95063.80
2023-05-15T21:03:09.333Z,95070.73
2023-05-15T21:05:57.874Z,95067.28
2023-05-15T21:08:31.942Z,95069.56
2023-05-15T21:11:00.716Z,95058.84
2023-05-15T21:13:30.966Z,95069.75
2023-05-15T21:18:41.554Z,95069.02
2023-05-15T21:21:10.498Z,95069.20
2023-05-15T21:23:48.910Z,95069.25
2023-05-15T21:26:24.889Z,95067.45
2023-05-15T21:28:53.391Z,95078.00
2023-05-15T21:31:22.267Z,95075.10
2023-05-15T21:33:51.036Z,95073.41
2023-05-15T21:36:20.144Z,95075.32
2023-05-15T21:38:48.966Z,95073.81
2023-05-15T21:41:17.973Z,95068.44
2023-05-15T21:43:46.656Z,95073.41
2023-05-15T21:46:15.446Z,95066.89
2023-05-15T21:48:44.548Z,95062.73
2023-05-15T21:51:17.867Z,95059.81
2023-05-15T21:53:50.857Z,95063.63
2023-05-15T21:56:22.710Z,95059.20
2023-05-15T21:58:53.416Z,95061.30
2023-05-15T22:01:23.811Z,95065.31
2023-05-15T22:03:52.911Z,95058.38
2023-05-15T22:06:27.749Z,95062.36
2023-05-15T22:08:56.822Z,95061.47
2023-05-15T22:11:26.345Z,95070.63
2023-05-15T22:13:55.142Z,95068.34
2023-05-15T22:16:24.034Z,95072.77
2023-05-15T22:18:54.004Z,95078.50
2023-05-15T22:21:22.849Z,95078.32
2023-05-15T22:23:51.486Z,95082.16
2023-05-15T22:26:20.914Z,95084.80
2023-05-15T22:28:51.229Z,95089.80
2023-05-15T22:31:19.829Z,95084.62
2023-05-15T22:33:48.478Z,95083.50
2023-05-15T22:36:17.498Z,95079.44
2023-05-15T22:38:46.675Z,95080.38
2023-05-15T22:41:17.054Z,95074.66
2023-05-15T22:43:45.888Z,95076.00
2023-05-15T22:46:16.175Z,95072.78
2023-05-15T22:48:45.025Z,95075.81
2023-05-15T22:51:15.357Z,95076.40
2023-05-15T22:53:44.168Z,95076.98
2023-05-15T22:56:12.811Z,95079.97
2023-05-15T22:58:41.421Z,95074.08
2023-05-15T23:01:10.757Z,95069.11
2023-05-15T23:03:39.606Z,95063.00
2023-05-15T23:06:09.907Z,95065.31
2023-05-15T23:08:38.554Z,95059.59
2023-05-15T23:11:07.218Z,95058.78
2023-05-15T23:13:35.867Z,95057.41
2023-05-15T23:16:04.815Z,95059.55
2023-05-15T23:18:35.465Z,95062.64
2023-05-15T23:21:06.993Z,95062.98
2023-05-15T23:23:35.770Z,95060.70
2023-05-15T23:26:07.721Z,95049.98
2023-05-15T23:28:36.324Z,95052.66
2023-05-15T23:31:05.111Z,95058.95
2023-05-15T23:33:34.322Z,95053.06
2023-05-15T23:36:03.060Z,95051.51
2023-05-15T23:38:31.633Z,95051.73
2023-05-15T23:41:00.400Z,95050.03
2023-05-15T23:43:29.748Z,95053.87
2023-05-15T23:45:58.950Z,95045.82
2023-05-15T23:48:28.106Z,95044.09
2023-05-15T23:50:56.935Z,95041.84
2023-05-15T23:53:25.621Z,95040.56
2023-05-15T23:55:54.314Z,95043.29
2023-05-15T23:58:23.728Z,95028.00
